Hauptseite
METAR-TAF:

METAR-TAF

Flughäfen :

Bamako, Mali

Flughafen Bamako

Breite: 12-32N, Länge: 007-57W, Höhe: 380 m

Beobachtung

Neuester Wetterbericht von vor 29 Minuten, um 23:30 UTC
Wind 8 kt aus Nord
Temperatur 25°C
Luftfeuchtigkeit 19%
Luftdruck 1016 hPa
Sichtweite: 6000 m

METAR: GABS 172330Z 36008KT 6000 NSC 25/00 Q1016 NOSIG

Zeit: 23:59 (23:59 UTC)

Prognose

Neuester Wetterbericht von vor 49 Minuten, um 23:10 UTC
Gültige Prognose vom 18 um 00 UTC bis 19 um 06 UTC
Wind 8 kt aus Nord
Sichtweite: 6000 m
Wahrscheinlichkeit 40% :
Zeitweise
vom 18 um 07 UTC bis 18 um 14 UTC
Sichtweite: 4000 m
verbreitet Staub

TAF: GABS 172310Z 1800/1906 36008KT 6000 NSC PROB40 TEMPO 1807/1814 4000 DU

Wetterbeobachtungen und Prognosen von mehr als 4000 Flughäfen (METAR und TAF Bericht).

Die verfügbaren Stationen werden durch gelbe und rote Markierungen auf der Karte dargestellt.

Führen Sie die Maus auf sie, um den Namen der Station zu sehen.

Darauf klicken, um die Beobachtung von Wetterbeobachtungen und Prognosen zu sehen.

Um die Karte zu ändern : klicken Sie auf den grünen Tasten mit einem schwarzen Kreuz Zum Vergrößern, auf den grünen Button mit einem Gedankenstrich zu verkleinern, oder auf die grünen Pfeile für benachbarte Karten.


METAR-TAF: